sensor_id;sensor_type;location;lat;lon;timestamp;P1;durP1;ratioP1;P2;durP2;ratioP2
8333;SDS011;4204;43.004;23.052;2023-12-14T00:00:23;3.60;;;2.97;;
8333;SDS011;4204;43.004;23.052;2023-12-14T00:02:51;3.90;;;3.00;;
8333;SDS011;4204;43.004;23.052;2023-12-14T00:05:20;3.60;;;3.07;;
8333;SDS011;4204;43.004;23.052;2023-12-14T00:07:47;4.03;;;3.20;;
8333;SDS011;4204;43.004;23.052;2023-12-14T00:10:15;4.83;;;3.10;;
8333;SDS011;4204;43.004;23.052;2023-12-14T00:12:43;4.17;;;2.80;;
8333;SDS011;4204;43.004;23.052;2023-12-14T00:15:11;3.97;;;2.70;;
8333;SDS011;4204;43.004;23.052;2023-12-14T00:17:39;6.80;;;2.43;;
8333;SDS011;4204;43.004;23.052;2023-12-14T00:20:07;2.37;;;2.03;;
8333;SDS011;4204;43.004;23.052;2023-12-14T00:22:38;2.80;;;2.27;;
8333;SDS011;4204;43.004;23.052;2023-12-14T00:25:07;2.87;;;2.10;;
8333;SDS011;4204;43.004;23.052;2023-12-14T00:27:34;3.70;;;2.33;;
8333;SDS011;4204;43.004;23.052;2023-12-14T00:30:02;6.27;;;2.40;;
8333;SDS011;4204;43.004;23.052;2023-12-14T00:32:30;4.50;;;2.33;;
8333;SDS011;4204;43.004;23.052;2023-12-14T00:34:58;2.73;;;2.23;;
8333;SDS011;4204;43.004;23.052;2023-12-14T00:37:26;4.53;;;2.03;;
8333;SDS011;4204;43.004;23.052;2023-12-14T00:39:54;2.63;;;2.20;;
8333;SDS011;4204;43.004;23.052;2023-12-14T00:42:22;2.37;;;1.93;;
8333;SDS011;4204;43.004;23.052;2023-12-14T00:44:50;4.23;;;2.20;;
8333;SDS011;4204;43.004;23.052;2023-12-14T00:47:18;3.87;;;2.10;;
8333;SDS011;4204;43.004;23.052;2023-12-14T00:49:45;5.70;;;3.10;;
8333;SDS011;4204;43.004;23.052;2023-12-14T00:52:13;6.93;;;3.70;;
8333;SDS011;4204;43.004;23.052;2023-12-14T00:54:40;2.87;;;2.50;;
8333;SDS011;4204;43.004;23.052;2023-12-14T00:57:09;2.60;;;2.10;;
8333;SDS011;4204;43.004;23.052;2023-12-14T00:59:37;3.67;;;2.50;;
8333;SDS011;4204;43.004;23.052;2023-12-14T01:02:06;2.40;;;2.00;;
8333;SDS011;4204;43.004;23.052;2023-12-14T01:04:33;2.53;;;2.20;;
8333;SDS011;4204;43.004;23.052;2023-12-14T01:07:01;3.63;;;2.10;;
8333;SDS011;4204;43.004;23.052;2023-12-14T01:09:29;3.43;;;2.20;;
8333;SDS011;4204;43.004;23.052;2023-12-14T01:11:56;2.53;;;2.33;;
8333;SDS011;4204;43.004;23.052;2023-12-14T01:14:25;5.43;;;2.63;;
8333;SDS011;4204;43.004;23.052;2023-12-14T01:16:53;3.27;;;2.13;;
8333;SDS011;4204;43.004;23.052;2023-12-14T01:19:20;3.97;;;2.20;;
8333;SDS011;4204;43.004;23.052;2023-12-14T01:21:48;2.60;;;2.30;;
8333;SDS011;4204;43.004;23.052;2023-12-14T01:24:15;3.23;;;2.13;;
8333;SDS011;4204;43.004;23.052;2023-12-14T01:26:43;2.30;;;2.10;;
8333;SDS011;4204;43.004;23.052;2023-12-14T01:29:11;2.83;;;2.20;;
8333;SDS011;4204;43.004;23.052;2023-12-14T01:31:40;3.93;;;2.60;;
8333;SDS011;4204;43.004;23.052;2023-12-14T01:34:07;5.23;;;2.00;;
8333;SDS011;4204;43.004;23.052;2023-12-14T01:36:37;2.73;;;2.17;;
8333;SDS011;4204;43.004;23.052;2023-12-14T01:39:05;5.57;;;2.50;;
8333;SDS011;4204;43.004;23.052;2023-12-14T01:41:32;2.83;;;2.37;;
8333;SDS011;4204;43.004;23.052;2023-12-14T01:44:00;2.53;;;2.00;;
8333;SDS011;4204;43.004;23.052;2023-12-14T01:46:28;4.53;;;2.20;;
8333;SDS011;4204;43.004;23.052;2023-12-14T01:48:57;3.93;;;2.30;;
8333;SDS011;4204;43.004;23.052;2023-12-14T01:51:24;3.73;;;2.23;;
8333;SDS011;4204;43.004;23.052;2023-12-14T01:53:52;2.53;;;2.27;;
8333;SDS011;4204;43.004;23.052;2023-12-14T01:56:20;5.13;;;2.37;;
8333;SDS011;4204;43.004;23.052;2023-12-14T01:58:47;3.20;;;1.90;;
8333;SDS011;4204;43.004;23.052;2023-12-14T02:01:18;3.23;;;2.20;;
8333;SDS011;4204;43.004;23.052;2023-12-14T02:03:51;3.80;;;2.27;;
8333;SDS011;4204;43.004;23.052;2023-12-14T02:06:21;3.67;;;2.40;;
8333;SDS011;4204;43.004;23.052;2023-12-14T02:08:49;3.47;;;2.70;;
8333;SDS011;4204;43.004;23.052;2023-12-14T02:11:16;2.93;;;2.53;;
8333;SDS011;4204;43.004;23.052;2023-12-14T02:13:44;3.30;;;2.60;;
8333;SDS011;4204;43.004;23.052;2023-12-14T02:16:11;4.97;;;2.70;;
8333;SDS011;4204;43.004;23.052;2023-12-14T02:18:39;3.63;;;2.53;;
8333;SDS011;4204;43.004;23.052;2023-12-14T02:21:07;3.37;;;2.40;;
8333;SDS011;4204;43.004;23.052;2023-12-14T02:23:36;3.97;;;2.40;;
8333;SDS011;4204;43.004;23.052;2023-12-14T02:26:10;3.10;;;2.67;;
8333;SDS011;4204;43.004;23.052;2023-12-14T02:28:38;2.57;;;2.30;;
8333;SDS011;4204;43.004;23.052;2023-12-14T02:31:05;3.40;;;2.67;;
8333;SDS011;4204;43.004;23.052;2023-12-14T02:33:33;6.10;;;3.40;;
8333;SDS011;4204;43.004;23.052;2023-12-14T02:36:01;3.77;;;2.97;;
8333;SDS011;4204;43.004;23.052;2023-12-14T02:38:29;3.77;;;2.63;;
8333;SDS011;4204;43.004;23.052;2023-12-14T02:40:58;3.30;;;2.90;;
8333;SDS011;4204;43.004;23.052;2023-12-14T02:43:26;3.70;;;2.60;;
8333;SDS011;4204;43.004;23.052;2023-12-14T02:45:53;4.13;;;2.63;;
8333;SDS011;4204;43.004;23.052;2023-12-14T02:48:27;3.13;;;2.37;;
8333;SDS011;4204;43.004;23.052;2023-12-14T02:50:55;3.47;;;2.40;;
8333;SDS011;4204;43.004;23.052;2023-12-14T02:53:25;2.60;;;2.20;;
8333;SDS011;4204;43.004;23.052;2023-12-14T02:55:53;3.57;;;2.37;;
8333;SDS011;4204;43.004;23.052;2023-12-14T02:58:22;3.97;;;2.13;;
8333;SDS011;4204;43.004;23.052;2023-12-14T03:00:50;4.53;;;2.80;;
8333;SDS011;4204;43.004;23.052;2023-12-14T03:03:17;3.50;;;2.67;;
8333;SDS011;4204;43.004;23.052;2023-12-14T03:05:45;6.63;;;2.30;;
8333;SDS011;4204;43.004;23.052;2023-12-14T03:08:14;2.80;;;2.40;;
8333;SDS011;4204;43.004;23.052;2023-12-14T03:10:42;4.77;;;2.70;;
8333;SDS011;4204;43.004;23.052;2023-12-14T03:13:09;2.80;;;2.33;;
8333;SDS011;4204;43.004;23.052;2023-12-14T03:15:38;4.83;;;2.30;;
8333;SDS011;4204;43.004;23.052;2023-12-14T03:18:06;5.30;;;2.43;;
8333;SDS011;4204;43.004;23.052;2023-12-14T03:20:33;3.37;;;2.07;;
8333;SDS011;4204;43.004;23.052;2023-12-14T03:23:01;3.03;;;2.40;;
8333;SDS011;4204;43.004;23.052;2023-12-14T03:25:29;3.33;;;2.40;;
8333;SDS011;4204;43.004;23.052;2023-12-14T03:27:56;3.60;;;2.30;;
8333;SDS011;4204;43.004;23.052;2023-12-14T03:30:24;4.60;;;2.40;;
8333;SDS011;4204;43.004;23.052;2023-12-14T03:32:54;2.97;;;2.37;;
8333;SDS011;4204;43.004;23.052;2023-12-14T03:35:21;2.80;;;2.20;;
8333;SDS011;4204;43.004;23.052;2023-12-14T03:37:49;3.87;;;2.93;;
8333;SDS011;4204;43.004;23.052;2023-12-14T03:40:17;4.07;;;2.77;;
8333;SDS011;4204;43.004;23.052;2023-12-14T03:42:45;5.20;;;3.23;;
8333;SDS011;4204;43.004;23.052;2023-12-14T03:45:12;5.87;;;4.23;;
8333;SDS011;4204;43.004;23.052;2023-12-14T03:47:40;5.80;;;4.30;;
8333;SDS011;4204;43.004;23.052;2023-12-14T03:50:10;8.97;;;4.20;;
8333;SDS011;4204;43.004;23.052;2023-12-14T03:52:38;5.67;;;3.83;;
8333;SDS011;4204;43.004;23.052;2023-12-14T03:55:06;7.20;;;4.40;;
8333;SDS011;4204;43.004;23.052;2023-12-14T03:57:35;8.47;;;4.67;;
8333;SDS011;4204;43.004;23.052;2023-12-14T04:00:03;4.33;;;3.40;;
8333;SDS011;4204;43.004;23.052;2023-12-14T04:02:32;6.20;;;3.90;;
8333;SDS011;4204;43.004;23.052;2023-12-14T04:04:59;4.77;;;3.80;;
8333;SDS011;4204;43.004;23.052;2023-12-14T04:07:29;5.07;;;3.37;;
8333;SDS011;4204;43.004;23.052;2023-12-14T04:09:56;4.43;;;3.33;;
8333;SDS011;4204;43.004;23.052;2023-12-14T04:12:24;5.40;;;3.27;;
8333;SDS011;4204;43.004;23.052;2023-12-14T04:14:51;3.97;;;2.90;;
8333;SDS011;4204;43.004;23.052;2023-12-14T04:17:19;2.87;;;2.60;;
8333;SDS011;4204;43.004;23.052;2023-12-14T04:19:47;4.67;;;2.30;;
8333;SDS011;4204;43.004;23.052;2023-12-14T04:22:14;3.73;;;2.10;;
8333;SDS011;4204;43.004;23.052;2023-12-14T04:24:43;4.17;;;2.00;;
8333;SDS011;4204;43.004;23.052;2023-12-14T04:27:12;2.53;;;2.13;;
8333;SDS011;4204;43.004;23.052;2023-12-14T04:29:39;3.97;;;1.77;;
8333;SDS011;4204;43.004;23.052;2023-12-14T04:32:07;3.57;;;2.13;;
8333;SDS011;4204;43.004;23.052;2023-12-14T04:34:35;6.87;;;4.40;;
8333;SDS011;4204;43.004;23.052;2023-12-14T04:37:02;3.53;;;2.67;;
8333;SDS011;4204;43.004;23.052;2023-12-14T04:39:30;3.20;;;2.20;;
8333;SDS011;4204;43.004;23.052;2023-12-14T04:41:59;3.47;;;2.40;;
8333;SDS011;4204;43.004;23.052;2023-12-14T04:44:27;2.50;;;2.30;;
8333;SDS011;4204;43.004;23.052;2023-12-14T04:46:54;2.83;;;2.00;;
8333;SDS011;4204;43.004;23.052;2023-12-14T04:49:22;5.10;;;2.90;;
8333;SDS011;4204;43.004;23.052;2023-12-14T04:51:50;3.93;;;2.53;;
8333;SDS011;4204;43.004;23.052;2023-12-14T04:54:17;2.87;;;2.20;;
8333;SDS011;4204;43.004;23.052;2023-12-14T04:56:45;3.77;;;2.70;;
8333;SDS011;4204;43.004;23.052;2023-12-14T04:59:14;7.03;;;2.70;;
8333;SDS011;4204;43.004;23.052;2023-12-14T05:01:42;6.27;;;2.50;;
8333;SDS011;4204;43.004;23.052;2023-12-14T05:04:10;2.10;;;1.90;;
8333;SDS011;4204;43.004;23.052;2023-12-14T05:06:38;2.80;;;2.10;;
8333;SDS011;4204;43.004;23.052;2023-12-14T05:09:06;4.13;;;2.47;;
8333;SDS011;4204;43.004;23.052;2023-12-14T05:11:33;2.87;;;2.37;;
8333;SDS011;4204;43.004;23.052;2023-12-14T05:14:01;3.30;;;2.40;;
8333;SDS011;4204;43.004;23.052;2023-12-14T05:16:30;3.53;;;2.67;;
8333;SDS011;4204;43.004;23.052;2023-12-14T05:18:58;6.03;;;3.53;;
8333;SDS011;4204;43.004;23.052;2023-12-14T05:21:25;5.67;;;3.73;;
8333;SDS011;4204;43.004;23.052;2023-12-14T05:23:53;6.00;;;3.23;;
8333;SDS011;4204;43.004;23.052;2023-12-14T05:26:21;6.13;;;4.10;;
8333;SDS011;4204;43.004;23.052;2023-12-14T05:28:48;4.90;;;3.30;;
8333;SDS011;4204;43.004;23.052;2023-12-14T05:31:15;4.67;;;2.93;;
8333;SDS011;4204;43.004;23.052;2023-12-14T05:33:45;2.60;;;2.00;;
8333;SDS011;4204;43.004;23.052;2023-12-14T05:36:12;2.70;;;2.40;;
8333;SDS011;4204;43.004;23.052;2023-12-14T05:38:41;5.63;;;3.27;;
8333;SDS011;4204;43.004;23.052;2023-12-14T05:41:09;2.93;;;2.63;;
8333;SDS011;4204;43.004;23.052;2023-12-14T05:43:37;4.50;;;2.13;;
8333;SDS011;4204;43.004;23.052;2023-12-14T05:46:05;5.03;;;1.90;;
8333;SDS011;4204;43.004;23.052;2023-12-14T05:48:32;4.17;;;3.77;;
8333;SDS011;4204;43.004;23.052;2023-12-14T05:51:01;7.20;;;4.77;;
8333;SDS011;4204;43.004;23.052;2023-12-14T05:53:29;6.23;;;3.80;;
8333;SDS011;4204;43.004;23.052;2023-12-14T05:55:57;2.93;;;2.23;;
8333;SDS011;4204;43.004;23.052;2023-12-14T05:58:25;4.80;;;2.50;;
8333;SDS011;4204;43.004;23.052;2023-12-14T06:00:52;3.83;;;2.03;;
8333;SDS011;4204;43.004;23.052;2023-12-14T06:03:20;3.53;;;2.00;;
8333;SDS011;4204;43.004;23.052;2023-12-14T06:05:48;2.60;;;2.20;;
8333;SDS011;4204;43.004;23.052;2023-12-14T06:08:17;3.73;;;2.70;;
8333;SDS011;4204;43.004;23.052;2023-12-14T06:10:45;2.20;;;2.00;;
8333;SDS011;4204;43.004;23.052;2023-12-14T06:13:12;5.40;;;2.23;;
8333;SDS011;4204;43.004;23.052;2023-12-14T06:15:40;8.87;;;3.90;;
8333;SDS011;4204;43.004;23.052;2023-12-14T06:18:08;3.37;;;2.30;;
8333;SDS011;4204;43.004;23.052;2023-12-14T06:20:35;3.40;;;2.63;;
8333;SDS011;4204;43.004;23.052;2023-12-14T06:23:03;5.33;;;2.87;;
8333;SDS011;4204;43.004;23.052;2023-12-14T06:25:32;5.80;;;3.97;;
8333;SDS011;4204;43.004;23.052;2023-12-14T06:28:00;4.67;;;3.10;;
8333;SDS011;4204;43.004;23.052;2023-12-14T06:30:27;6.00;;;3.13;;
8333;SDS011;4204;43.004;23.052;2023-12-14T06:32:55;4.17;;;3.10;;
8333;SDS011;4204;43.004;23.052;2023-12-14T06:35:23;3.70;;;3.00;;
8333;SDS011;4204;43.004;23.052;2023-12-14T06:37:50;6.33;;;3.50;;
8333;SDS011;4204;43.004;23.052;2023-12-14T06:40:18;4.60;;;3.13;;
8333;SDS011;4204;43.004;23.052;2023-12-14T06:42:48;10.33;;;7.43;;
8333;SDS011;4204;43.004;23.052;2023-12-14T06:45:16;7.97;;;5.30;;
8333;SDS011;4204;43.004;23.052;2023-12-14T06:47:43;4.20;;;3.50;;
8333;SDS011;4204;43.004;23.052;2023-12-14T06:50:12;12.43;;;9.03;;
8333;SDS011;4204;43.004;23.052;2023-12-14T06:52:41;12.93;;;9.30;;
8333;SDS011;4204;43.004;23.052;2023-12-14T06:55:09;15.33;;;8.20;;
8333;SDS011;4204;43.004;23.052;2023-12-14T06:57:37;10.67;;;6.83;;
8333;SDS011;4204;43.004;23.052;2023-12-14T07:00:07;4.47;;;3.30;;
8333;SDS011;4204;43.004;23.052;2023-12-14T07:02:36;12.93;;;9.87;;
8333;SDS011;4204;43.004;23.052;2023-12-14T07:05:04;8.17;;;5.57;;
8333;SDS011;4204;43.004;23.052;2023-12-14T07:07:32;10.67;;;5.40;;
8333;SDS011;4204;43.004;23.052;2023-12-14T07:09:59;13.03;;;8.93;;
8333;SDS011;4204;43.004;23.052;2023-12-14T07:12:27;19.93;;;13.30;;
8333;SDS011;4204;43.004;23.052;2023-12-14T07:14:55;22.63;;;14.70;;
8333;SDS011;4204;43.004;23.052;2023-12-14T07:17:24;23.73;;;13.30;;
8333;SDS011;4204;43.004;23.052;2023-12-14T07:19:52;64.87;;;38.83;;
8333;SDS011;4204;43.004;23.052;2023-12-14T07:22:20;23.70;;;17.07;;
8333;SDS011;4204;43.004;23.052;2023-12-14T07:24:47;30.83;;;19.00;;
8333;SDS011;4204;43.004;23.052;2023-12-14T07:27:15;36.77;;;23.53;;
8333;SDS011;4204;43.004;23.052;2023-12-14T07:29:43;281.93;;;191.13;;
8333;SDS011;4204;43.004;23.052;2023-12-14T07:32:11;203.57;;;139.73;;
8333;SDS011;4204;43.004;23.052;2023-12-14T07:34:40;63.10;;;46.00;;
8333;SDS011;4204;43.004;23.052;2023-12-14T07:37:07;65.07;;;43.87;;
8333;SDS011;4204;43.004;23.052;2023-12-14T07:39:35;67.17;;;43.13;;
8333;SDS011;4204;43.004;23.052;2023-12-14T07:42:04;43.23;;;27.83;;
8333;SDS011;4204;43.004;23.052;2023-12-14T07:44:33;37.07;;;21.60;;
8333;SDS011;4204;43.004;23.052;2023-12-14T07:47:01;57.30;;;32.67;;
8333;SDS011;4204;43.004;23.052;2023-12-14T07:49:29;72.27;;;39.30;;
8333;SDS011;4204;43.004;23.052;2023-12-14T07:51:58;66.17;;;37.77;;
8333;SDS011;4204;43.004;23.052;2023-12-14T07:54:26;76.00;;;39.57;;
8333;SDS011;4204;43.004;23.052;2023-12-14T07:56:54;71.83;;;42.57;;
8333;SDS011;4204;43.004;23.052;2023-12-14T07:59:22;57.63;;;35.53;;
8333;SDS011;4204;43.004;23.052;2023-12-14T08:01:50;59.47;;;36.13;;
8333;SDS011;4204;43.004;23.052;2023-12-14T08:04:17;36.57;;;24.93;;
8333;SDS011;4204;43.004;23.052;2023-12-14T08:06:45;19.83;;;10.30;;
8333;SDS011;4204;43.004;23.052;2023-12-14T08:09:14;9.63;;;6.43;;
8333;SDS011;4204;43.004;23.052;2023-12-14T08:11:42;12.10;;;6.40;;
8333;SDS011;4204;43.004;23.052;2023-12-14T08:14:09;8.03;;;5.43;;
8333;SDS011;4204;43.004;23.052;2023-12-14T08:16:37;4.67;;;3.90;;
8333;SDS011;4204;43.004;23.052;2023-12-14T08:19:06;8.30;;;3.43;;
8333;SDS011;4204;43.004;23.052;2023-12-14T08:21:34;5.83;;;3.53;;
8333;SDS011;4204;43.004;23.052;2023-12-14T08:24:02;6.53;;;3.93;;
8333;SDS011;4204;43.004;23.052;2023-12-14T08:26:32;4.03;;;2.93;;
8333;SDS011;4204;43.004;23.052;2023-12-14T08:28:59;6.37;;;3.57;;
8333;SDS011;4204;43.004;23.052;2023-12-14T08:31:27;4.87;;;3.33;;
8333;SDS011;4204;43.004;23.052;2023-12-14T08:33:55;4.67;;;3.50;;
8333;SDS011;4204;43.004;23.052;2023-12-14T08:36:22;6.23;;;4.03;;
8333;SDS011;4204;43.004;23.052;2023-12-14T08:38:49;7.43;;;3.87;;
8333;SDS011;4204;43.004;23.052;2023-12-14T08:41:17;6.03;;;4.37;;
8333;SDS011;4204;43.004;23.052;2023-12-14T08:43:46;6.20;;;4.27;;
8333;SDS011;4204;43.004;23.052;2023-12-14T08:46:14;6.23;;;4.67;;
8333;SDS011;4204;43.004;23.052;2023-12-14T08:48:41;5.70;;;4.40;;
8333;SDS011;4204;43.004;23.052;2023-12-14T08:51:09;5.73;;;4.60;;
8333;SDS011;4204;43.004;23.052;2023-12-14T08:53:36;7.30;;;5.17;;
8333;SDS011;4204;43.004;23.052;2023-12-14T08:56:04;7.40;;;5.23;;
8333;SDS011;4204;43.004;23.052;2023-12-14T08:58:32;7.70;;;5.60;;
8333;SDS011;4204;43.004;23.052;2023-12-14T09:01:01;7.83;;;5.50;;
8333;SDS011;4204;43.004;23.052;2023-12-14T09:03:29;9.00;;;6.03;;
8333;SDS011;4204;43.004;23.052;2023-12-14T09:05:57;7.93;;;6.23;;
8333;SDS011;4204;43.004;23.052;2023-12-14T09:08:25;9.33;;;6.57;;
8333;SDS011;4204;43.004;23.052;2023-12-14T09:10:53;10.33;;;6.80;;
8333;SDS011;4204;43.004;23.052;2023-12-14T09:13:20;11.07;;;6.87;;
8333;SDS011;4204;43.004;23.052;2023-12-14T09:15:48;11.20;;;7.13;;
8333;SDS011;4204;43.004;23.052;2023-12-14T09:18:19;10.83;;;7.43;;
8333;SDS011;4204;43.004;23.052;2023-12-14T09:20:48;10.00;;;6.80;;
8333;SDS011;4204;43.004;23.052;2023-12-14T09:23:16;11.30;;;7.73;;
8333;SDS011;4204;43.004;23.052;2023-12-14T09:25:45;11.93;;;8.20;;
8333;SDS011;4204;43.004;23.052;2023-12-14T09:28:13;12.73;;;7.80;;
8333;SDS011;4204;43.004;23.052;2023-12-14T09:30:40;9.97;;;7.53;;
8333;SDS011;4204;43.004;23.052;2023-12-14T09:33:08;12.07;;;8.20;;
8333;SDS011;4204;43.004;23.052;2023-12-14T09:35:37;12.10;;;8.20;;
8333;SDS011;4204;43.004;23.052;2023-12-14T09:38:05;13.53;;;9.13;;
8333;SDS011;4204;43.004;23.052;2023-12-14T09:40:33;15.03;;;9.23;;
8333;SDS011;4204;43.004;23.052;2023-12-14T09:43:01;20.50;;;9.20;;
8333;SDS011;4204;43.004;23.052;2023-12-14T09:45:29;13.80;;;8.97;;
8333;SDS011;4204;43.004;23.052;2023-12-14T09:47:57;13.90;;;9.23;;
8333;SDS011;4204;43.004;23.052;2023-12-14T09:50:27;13.00;;;9.37;;
8333;SDS011;4204;43.004;23.052;2023-12-14T09:52:58;11.40;;;8.73;;
8333;SDS011;4204;43.004;23.052;2023-12-14T09:55:26;11.13;;;8.43;;
8333;SDS011;4204;43.004;23.052;2023-12-14T09:57:53;12.87;;;9.07;;
8333;SDS011;4204;43.004;23.052;2023-12-14T10:00:33;12.63;;;9.13;;
8333;SDS011;4204;43.004;23.052;2023-12-14T10:03:18;12.60;;;8.47;;
8333;SDS011;4204;43.004;23.052;2023-12-14T10:05:47;13.83;;;9.97;;
8333;SDS011;4204;43.004;23.052;2023-12-14T10:08:17;11.17;;;8.43;;
8333;SDS011;4204;43.004;23.052;2023-12-14T10:10:46;9.97;;;7.67;;
8333;SDS011;4204;43.004;23.052;2023-12-14T10:13:17;10.60;;;8.57;;
8333;SDS011;4204;43.004;23.052;2023-12-14T10:15:45;11.60;;;8.33;;
8333;SDS011;4204;43.004;23.052;2023-12-14T10:18:17;11.53;;;7.90;;
8333;SDS011;4204;43.004;23.052;2023-12-14T10:20:54;8.63;;;7.17;;
8333;SDS011;4204;43.004;23.052;2023-12-14T10:23:37;11.33;;;7.50;;
8333;SDS011;4204;43.004;23.052;2023-12-14T10:26:06;9.40;;;6.87;;
8333;SDS011;4204;43.004;23.052;2023-12-14T10:28:34;7.77;;;6.30;;
8333;SDS011;4204;43.004;23.052;2023-12-14T10:31:01;7.07;;;5.70;;
8333;SDS011;4204;43.004;23.052;2023-12-14T10:33:31;8.67;;;5.47;;
8333;SDS011;4204;43.004;23.052;2023-12-14T10:35:58;6.70;;;4.63;;
8333;SDS011;4204;43.004;23.052;2023-12-14T10:38:28;8.03;;;5.13;;
8333;SDS011;4204;43.004;23.052;2023-12-14T10:40:58;6.30;;;4.53;;
8333;SDS011;4204;43.004;23.052;2023-12-14T10:43:26;5.67;;;3.90;;
8333;SDS011;4204;43.004;23.052;2023-12-14T10:45:54;7.23;;;4.90;;
8333;SDS011;4204;43.004;23.052;2023-12-14T10:48:23;4.30;;;3.50;;
8333;SDS011;4204;43.004;23.052;2023-12-14T10:50:50;4.63;;;3.10;;
8333;SDS011;4204;43.004;23.052;2023-12-14T10:53:20;3.40;;;3.10;;
8333;SDS011;4204;43.004;23.052;2023-12-14T10:55:48;2.77;;;2.20;;
8333;SDS011;4204;43.004;23.052;2023-12-14T10:58:19;4.37;;;2.40;;
8333;SDS011;4204;43.004;23.052;2023-12-14T11:03:32;2.20;;;1.83;;
8333;SDS011;4204;43.004;23.052;2023-12-14T11:06:01;3.07;;;2.00;;
8333;SDS011;4204;43.004;23.052;2023-12-14T11:08:30;2.50;;;2.00;;
8333;SDS011;4204;43.004;23.052;2023-12-14T11:11:03;2.07;;;1.70;;
8333;SDS011;4204;43.004;23.052;2023-12-14T11:13:38;4.27;;;1.90;;
8333;SDS011;4204;43.004;23.052;2023-12-14T11:16:07;2.63;;;1.80;;
8333;SDS011;4204;43.004;23.052;2023-12-14T11:18:35;3.20;;;2.37;;
8333;SDS011;4204;43.004;23.052;2023-12-14T11:21:03;1.97;;;1.73;;
8333;SDS011;4204;43.004;23.052;2023-12-14T11:23:33;3.17;;;1.70;;
8333;SDS011;4204;43.004;23.052;2023-12-14T11:26:05;1.70;;;1.60;;
8333;SDS011;4204;43.004;23.052;2023-12-14T11:28:51;3.10;;;2.50;;
8333;SDS011;4204;43.004;23.052;2023-12-14T11:31:21;1.80;;;1.63;;
8333;SDS011;4204;43.004;23.052;2023-12-14T11:33:49;3.30;;;1.60;;
8333;SDS011;4204;43.004;23.052;2023-12-14T11:36:16;2.63;;;2.10;;
8333;SDS011;4204;43.004;23.052;2023-12-14T11:38:44;2.03;;;1.50;;
8333;SDS011;4204;43.004;23.052;2023-12-14T11:41:13;4.33;;;1.70;;
8333;SDS011;4204;43.004;23.052;2023-12-14T11:43:41;2.60;;;1.77;;
8333;SDS011;4204;43.004;23.052;2023-12-14T11:46:10;2.23;;;1.70;;
8333;SDS011;4204;43.004;23.052;2023-12-14T11:48:39;2.10;;;1.90;;
8333;SDS011;4204;43.004;23.052;2023-12-14T11:51:07;2.53;;;1.43;;
8333;SDS011;4204;43.004;23.052;2023-12-14T11:53:35;2.03;;;1.50;;
8333;SDS011;4204;43.004;23.052;2023-12-14T11:56:05;1.80;;;1.40;;
8333;SDS011;4204;43.004;23.052;2023-12-14T11:58:36;2.23;;;1.57;;
8333;SDS011;4204;43.004;23.052;2023-12-14T12:01:15;1.90;;;1.60;;
8333;SDS011;4204;43.004;23.052;2023-12-14T12:03:44;2.30;;;1.30;;
8333;SDS011;4204;43.004;23.052;2023-12-14T12:06:19;2.83;;;1.90;;
8333;SDS011;4204;43.004;23.052;2023-12-14T12:08:49;2.23;;;1.60;;
8333;SDS011;4204;43.004;23.052;2023-12-14T12:11:17;1.73;;;1.60;;
8333;SDS011;4204;43.004;23.052;2023-12-14T12:13:47;1.40;;;1.30;;
8333;SDS011;4204;43.004;23.052;2023-12-14T12:16:19;1.57;;;1.37;;
8333;SDS011;4204;43.004;23.052;2023-12-14T12:18:46;1.47;;;1.27;;
8333;SDS011;4204;43.004;23.052;2023-12-14T12:21:14;2.23;;;1.50;;
8333;SDS011;4204;43.004;23.052;2023-12-14T12:23:42;1.90;;;1.60;;
8333;SDS011;4204;43.004;23.052;2023-12-14T12:26:10;1.93;;;1.43;;
8333;SDS011;4204;43.004;23.052;2023-12-14T12:28:38;1.60;;;1.40;;
8333;SDS011;4204;43.004;23.052;2023-12-14T12:31:05;3.13;;;2.50;;
8333;SDS011;4204;43.004;23.052;2023-12-14T12:33:35;4.13;;;3.73;;
8333;SDS011;4204;43.004;23.052;2023-12-14T12:36:04;2.60;;;2.40;;
8333;SDS011;4204;43.004;23.052;2023-12-14T12:38:32;3.90;;;2.70;;
8333;SDS011;4204;43.004;23.052;2023-12-14T12:41:00;2.10;;;1.90;;
8333;SDS011;4204;43.004;23.052;2023-12-14T12:43:27;4.07;;;3.00;;
8333;SDS011;4204;43.004;23.052;2023-12-14T12:45:55;10.87;;;6.87;;
8333;SDS011;4204;43.004;23.052;2023-12-14T12:48:24;3.93;;;3.50;;
8333;SDS011;4204;43.004;23.052;2023-12-14T12:50:53;9.93;;;6.40;;
8333;SDS011;4204;43.004;23.052;2023-12-14T12:53:21;4.90;;;3.47;;
8333;SDS011;4204;43.004;23.052;2023-12-14T12:55:49;1.80;;;1.70;;
8333;SDS011;4204;43.004;23.052;2023-12-14T12:58:16;1.77;;;1.67;;
8333;SDS011;4204;43.004;23.052;2023-12-14T13:00:44;2.13;;;1.93;;
8333;SDS011;4204;43.004;23.052;2023-12-14T13:03:11;1.80;;;1.70;;
8333;SDS011;4204;43.004;23.052;2023-12-14T13:05:39;1.60;;;1.30;;
8333;SDS011;4204;43.004;23.052;2023-12-14T13:08:09;2.23;;;1.57;;
8333;SDS011;4204;43.004;23.052;2023-12-14T13:10:37;1.40;;;1.30;;
8333;SDS011;4204;43.004;23.052;2023-12-14T13:13:05;1.73;;;1.63;;
8333;SDS011;4204;43.004;23.052;2023-12-14T13:15:34;1.60;;;1.20;;
8333;SDS011;4204;43.004;23.052;2023-12-14T13:18:05;3.60;;;2.00;;
8333;SDS011;4204;43.004;23.052;2023-12-14T13:20:32;3.63;;;2.30;;
8333;SDS011;4204;43.004;23.052;2023-12-14T13:23:00;2.37;;;1.70;;
8333;SDS011;4204;43.004;23.052;2023-12-14T13:25:29;2.23;;;1.70;;
8333;SDS011;4204;43.004;23.052;2023-12-14T13:27:57;1.30;;;1.20;;
8333;SDS011;4204;43.004;23.052;2023-12-14T13:30:24;2.00;;;1.80;;
8333;SDS011;4204;43.004;23.052;2023-12-14T13:32:52;2.10;;;1.60;;
8333;SDS011;4204;43.004;23.052;2023-12-14T13:35:20;3.93;;;2.30;;
8333;SDS011;4204;43.004;23.052;2023-12-14T13:37:50;3.07;;;1.77;;
8333;SDS011;4204;43.004;23.052;2023-12-14T13:40:18;2.30;;;1.40;;
8333;SDS011;4204;43.004;23.052;2023-12-14T13:42:47;1.30;;;1.10;;
8333;SDS011;4204;43.004;23.052;2023-12-14T13:45:14;2.83;;;1.80;;
8333;SDS011;4204;43.004;23.052;2023-12-14T13:47:42;1.63;;;1.53;;
8333;SDS011;4204;43.004;23.052;2023-12-14T13:50:10;1.83;;;1.63;;
8333;SDS011;4204;43.004;23.052;2023-12-14T13:52:37;1.80;;;1.60;;
8333;SDS011;4204;43.004;23.052;2023-12-14T13:55:05;2.83;;;2.10;;
8333;SDS011;4204;43.004;23.052;2023-12-14T13:57:33;10.47;;;5.27;;
8333;SDS011;4204;43.004;23.052;2023-12-14T14:00:02;3.17;;;2.47;;
8333;SDS011;4204;43.004;23.052;2023-12-14T14:02:31;5.40;;;3.60;;
8333;SDS011;4204;43.004;23.052;2023-12-14T14:04:59;3.23;;;2.60;;
8333;SDS011;4204;43.004;23.052;2023-12-14T14:07:27;4.83;;;4.30;;
8333;SDS011;4204;43.004;23.052;2023-12-14T14:09:55;4.13;;;2.23;;
8333;SDS011;4204;43.004;23.052;2023-12-14T14:12:22;1.50;;;1.40;;
8333;SDS011;4204;43.004;23.052;2023-12-14T14:14:50;4.33;;;2.10;;
8333;SDS011;4204;43.004;23.052;2023-12-14T14:17:19;1.83;;;1.70;;
8333;SDS011;4204;43.004;23.052;2023-12-14T14:19:45;4.30;;;2.13;;
8333;SDS011;4204;43.004;23.052;2023-12-14T14:22:13;2.53;;;1.77;;
8333;SDS011;4204;43.004;23.052;2023-12-14T14:24:41;3.20;;;1.87;;
8333;SDS011;4204;43.004;23.052;2023-12-14T14:27:08;2.13;;;1.90;;
8333;SDS011;4204;43.004;23.052;2023-12-14T14:29:37;2.87;;;2.33;;
8333;SDS011;4204;43.004;23.052;2023-12-14T14:32:05;5.07;;;2.93;;
8333;SDS011;4204;43.004;23.052;2023-12-14T14:34:34;3.80;;;2.30;;
8333;SDS011;4204;43.004;23.052;2023-12-14T14:37:02;7.77;;;5.73;;
8333;SDS011;4204;43.004;23.052;2023-12-14T14:39:29;4.50;;;3.17;;
8333;SDS011;4204;43.004;23.052;2023-12-14T14:41:57;4.43;;;3.80;;
8333;SDS011;4204;43.004;23.052;2023-12-14T14:44:26;2.87;;;2.40;;
8333;SDS011;4204;43.004;23.052;2023-12-14T14:46:54;2.40;;;1.93;;
8333;SDS011;4204;43.004;23.052;2023-12-14T14:49:21;2.97;;;2.37;;
8333;SDS011;4204;43.004;23.052;2023-12-14T14:51:50;3.20;;;2.67;;
8333;SDS011;4204;43.004;23.052;2023-12-14T14:54:18;3.37;;;2.63;;
8333;SDS011;4204;43.004;23.052;2023-12-14T14:56:45;4.67;;;2.70;;
8333;SDS011;4204;43.004;23.052;2023-12-14T14:59:13;9.63;;;7.87;;
8333;SDS011;4204;43.004;23.052;2023-12-14T15:01:41;25.20;;;13.93;;
8333;SDS011;4204;43.004;23.052;2023-12-14T15:04:11;31.00;;;16.33;;
8333;SDS011;4204;43.004;23.052;2023-12-14T15:06:38;16.00;;;9.27;;